createdAt,value
2018-03-14T00:01:56.085Z,4.30
2018-03-14T00:04:24.265Z,5.30
2018-03-14T00:06:52.465Z,5.80
2018-03-14T00:09:20.663Z,5.93
2018-03-14T00:11:48.848Z,5.70
2018-03-14T00:14:17.027Z,4.90
2018-03-14T00:16:45.216Z,5.83
2018-03-14T00:19:13.384Z,5.60
2018-03-14T00:21:41.558Z,5.20
2018-03-14T00:24:09.737Z,5.37
2018-03-14T00:26:37.925Z,5.47
2018-03-14T00:29:06.103Z,5.47
2018-03-14T00:31:34.281Z,5.43
2018-03-14T00:34:02.475Z,6.03
2018-03-14T00:36:30.645Z,4.47
2018-03-14T00:38:58.835Z,4.80
2018-03-14T00:41:27.012Z,6.30
2018-03-14T00:43:55.948Z,5.10
2018-03-14T00:46:24.129Z,4.63
2018-03-14T00:48:52.315Z,7.17
2018-03-14T00:51:21.274Z,5.00
2018-03-14T00:53:49.454Z,6.10
2018-03-14T00:56:17.630Z,4.33
2018-03-14T00:58:45.807Z,7.20
2018-03-14T01:01:13.990Z,5.30
2018-03-14T01:03:42.183Z,8.63
2018-03-14T01:06:10.364Z,7.37
2018-03-14T01:08:38.553Z,4.93
2018-03-14T01:11:06.738Z,4.30
2018-03-14T01:13:34.917Z,7.00
2018-03-14T01:16:03.861Z,7.03
2018-03-14T01:18:32.076Z,5.10
2018-03-14T01:21:00.255Z,6.77
2018-03-14T01:23:28.435Z,5.20
2018-03-14T01:25:56.607Z,6.90
2018-03-14T01:28:25.555Z,5.63
2018-03-14T01:30:53.740Z,6.70
2018-03-14T01:33:21.922Z,6.30
2018-03-14T01:35:50.110Z,6.90
2018-03-14T01:38:18.318Z,7.80
2018-03-14T01:40:47.259Z,5.33
2018-03-14T01:43:15.452Z,5.03
2018-03-14T01:45:43.627Z,5.40
2018-03-14T01:48:11.827Z,4.90
2018-03-14T01:50:40.774Z,9.90
2018-03-14T01:53:26.746Z,4.67
2018-03-14T01:55:54.950Z,4.80
2018-03-14T01:58:23.134Z,5.77
2018-03-14T02:00:51.317Z,4.67
2018-03-14T02:03:19.511Z,5.07
2018-03-14T02:05:48.445Z,6.80
2018-03-14T02:08:16.632Z,4.80
2018-03-14T02:10:44.808Z,6.10
2018-03-14T02:13:12.994Z,5.13
2018-03-14T02:15:41.191Z,5.70
2018-03-14T02:18:09.379Z,6.67
2018-03-14T02:20:38.326Z,7.40
2018-03-14T02:23:06.521Z,7.03
2018-03-14T02:25:34.710Z,6.57
2018-03-14T02:28:03.674Z,5.20
2018-03-14T02:30:31.903Z,6.10
2018-03-14T02:33:00.098Z,4.67
2018-03-14T02:35:28.274Z,12.23
2018-03-14T02:37:56.450Z,6.20
2018-03-14T02:40:24.654Z,8.80
2018-03-14T02:42:52.838Z,7.30
2018-03-14T02:45:21.026Z,10.43
2018-03-14T02:47:49.193Z,6.83
2018-03-14T02:50:17.355Z,8.10
2018-03-14T02:52:45.514Z,9.00
2018-03-14T02:55:13.701Z,11.83
2018-03-14T02:57:42.688Z,8.07
2018-03-14T03:00:10.857Z,6.10
2018-03-14T03:02:39.015Z,6.07
2018-03-14T03:05:07.184Z,5.40
2018-03-14T03:07:35.379Z,6.30
2018-03-14T03:10:03.542Z,5.10
2018-03-14T03:12:31.702Z,4.90
2018-03-14T03:15:00.622Z,6.03
2018-03-14T03:17:28.777Z,7.37
2018-03-14T03:19:56.941Z,4.70
2018-03-14T03:22:25.862Z,5.87
2018-03-14T03:24:54.061Z,5.00
2018-03-14T03:27:22.222Z,6.67
2018-03-14T03:29:50.391Z,7.07
2018-03-14T03:32:18.561Z,6.37
2018-03-14T03:34:46.723Z,6.10
2018-03-14T03:37:14.878Z,6.57
2018-03-14T03:39:43.088Z,6.67
2018-03-14T03:42:11.250Z,7.87
2018-03-14T03:44:39.411Z,9.77
2018-03-14T03:47:07.568Z,5.37
2018-03-14T03:49:36.519Z,5.03
2018-03-14T03:52:04.706Z,6.07
2018-03-14T03:54:32.876Z,7.60
2018-03-14T03:57:01.039Z,7.90
2018-03-14T03:59:29.246Z,7.17
2018-03-14T04:01:57.439Z,6.07
2018-03-14T04:04:26.366Z,9.13
2018-03-14T04:06:54.540Z,7.70
2018-03-14T04:09:22.716Z,8.93
2018-03-14T04:11:50.873Z,5.70
2018-03-14T04:14:19.042Z,5.10
2018-03-14T04:16:47.204Z,5.20
2018-03-14T04:19:16.140Z,7.07
2018-03-14T04:21:44.301Z,5.00
2018-03-14T04:24:12.464Z,5.90
2018-03-14T04:26:40.638Z,5.60
2018-03-14T04:29:08.805Z,5.43
2018-03-14T04:31:36.962Z,6.23
2018-03-14T04:34:05.892Z,7.30
2018-03-14T04:36:34.086Z,6.30
2018-03-14T04:39:02.264Z,5.00
2018-03-14T04:41:30.444Z,5.77
2018-03-14T04:43:58.633Z,6.40
2018-03-14T04:46:26.812Z,7.20
2018-03-14T04:48:54.987Z,5.50
2018-03-14T04:51:23.215Z,7.30
2018-03-14T04:53:51.398Z,5.10
2018-03-14T04:56:19.609Z,6.40
2018-03-14T04:58:48.546Z,7.20
2018-03-14T05:01:16.714Z,5.60
2018-03-14T05:03:44.878Z,5.90
2018-03-14T05:06:13.081Z,5.03
2018-03-14T05:08:41.258Z,6.40
2018-03-14T05:11:09.439Z,5.13
2018-03-14T05:13:37.618Z,6.40
2018-03-14T05:16:05.793Z,7.00
2018-03-14T05:18:33.965Z,5.20
2018-03-14T05:21:02.133Z,5.30
2018-03-14T05:23:30.332Z,7.37
2018-03-14T05:25:58.503Z,6.17
2018-03-14T05:28:26.670Z,5.40
2018-03-14T05:30:54.850Z,6.20
2018-03-14T05:33:23.033Z,7.40
2018-03-14T05:35:51.218Z,6.50
2018-03-14T05:38:19.420Z,6.93
2018-03-14T05:40:48.347Z,5.40
2018-03-14T05:43:16.519Z,5.70
2018-03-14T05:45:44.689Z,7.30
2018-03-14T05:48:12.850Z,6.17
2018-03-14T05:50:41.022Z,5.30
2018-03-14T05:53:09.196Z,6.60
2018-03-14T05:55:37.374Z,6.60
2018-03-14T05:58:05.536Z,8.67
2018-03-14T06:00:33.710Z,7.40
2018-03-14T06:03:01.886Z,8.10
2018-03-14T06:05:30.068Z,6.47
2018-03-14T06:07:58.246Z,7.17
2018-03-14T06:10:26.412Z,8.53
2018-03-14T06:12:54.613Z,6.90
2018-03-14T06:15:22.785Z,8.17
2018-03-14T06:17:50.955Z,8.60
2018-03-14T06:20:19.111Z,9.53
2018-03-14T06:22:47.282Z,9.47
2018-03-14T06:25:15.464Z,9.20
2018-03-14T06:27:43.644Z,8.60
2018-03-14T06:30:11.819Z,8.27
2018-03-14T06:32:40.037Z,10.37
2018-03-14T06:35:08.203Z,7.60
2018-03-14T06:37:36.366Z,6.73
2018-03-14T06:40:04.539Z,6.77
2018-03-14T06:42:32.715Z,8.30
2018-03-14T06:45:00.949Z,13.90
2018-03-14T06:47:29.886Z,10.13
2018-03-14T06:49:58.047Z,9.83
2018-03-14T06:52:26.220Z,10.47
2018-03-14T06:54:54.411Z,13.17
2018-03-14T06:57:22.575Z,9.23
2018-03-14T07:00:08.675Z,11.30
2018-03-14T07:03:04.489Z,9.20
2018-03-14T07:05:50.607Z,12.90
2018-03-14T07:08:18.801Z,12.00
2018-03-14T07:10:46.974Z,7.70
2018-03-14T07:13:15.145Z,16.13
2018-03-14T07:15:43.306Z,13.60
2018-03-14T07:18:11.488Z,10.10
2018-03-14T07:20:39.656Z,11.10
2018-03-14T07:23:07.817Z,9.83
2018-03-14T07:25:35.989Z,8.90
2018-03-14T07:28:04.150Z,9.07
2018-03-14T07:30:32.310Z,10.40
2018-03-14T07:33:00.511Z,12.90
2018-03-14T07:35:28.680Z,14.00
2018-03-14T07:37:56.845Z,15.77
2018-03-14T07:40:25.044Z,13.60
2018-03-14T07:42:53.209Z,17.20
2018-03-14T07:45:21.411Z,16.53
2018-03-14T07:47:49.607Z,18.30
2018-03-14T07:50:18.544Z,16.33
2018-03-14T07:52:46.713Z,18.30
2018-03-14T07:55:14.874Z,24.43
2018-03-14T07:57:43.054Z,18.20
2018-03-14T08:00:11.222Z,21.63
2018-03-14T08:02:39.396Z,21.97
2018-03-14T08:05:07.572Z,21.33
2018-03-14T08:07:35.747Z,17.90
2018-03-14T08:10:03.942Z,20.87
2018-03-14T08:12:32.123Z,25.03
2018-03-14T08:15:00.301Z,22.70
2018-03-14T08:17:28.483Z,17.30
2018-03-14T08:19:56.653Z,14.90
2018-03-14T08:22:24.841Z,17.10
2018-03-14T08:24:53.031Z,27.77
2018-03-14T08:27:21.211Z,19.10
2018-03-14T08:29:50.165Z,15.10
2018-03-14T08:32:18.345Z,19.00
2018-03-14T08:34:46.514Z,20.20
2018-03-14T08:37:14.700Z,19.30
2018-03-14T08:39:42.928Z,19.00
2018-03-14T08:42:11.897Z,27.43
2018-03-14T08:44:40.075Z,17.87
2018-03-14T08:47:09.031Z,23.43
2018-03-14T08:49:37.202Z,18.20
2018-03-14T08:52:05.366Z,13.40
2018-03-14T08:54:34.073Z,11.77
2018-03-14T08:57:02.280Z,10.60
2018-03-14T08:59:31.285Z,39.60
2018-03-14T09:01:59.434Z,13.27
2018-03-14T09:04:27.643Z,21.13
2018-03-14T09:06:55.837Z,29.87
2018-03-14T09:09:24.011Z,13.97
2018-03-14T09:11:52.193Z,15.50
2018-03-14T09:14:20.369Z,11.07
2018-03-14T09:16:48.550Z,8.40
2018-03-14T09:19:16.717Z,8.20
2018-03-14T09:21:44.879Z,6.60
2018-03-14T09:24:13.064Z,5.43
2018-03-14T09:26:41.235Z,8.70
2018-03-14T09:29:09.402Z,5.23
2018-03-14T09:31:37.653Z,2.83
2018-03-14T09:34:06.613Z,2.97
2018-03-14T09:36:34.779Z,7.10
2018-03-14T09:39:02.982Z,1.80
2018-03-14T09:41:31.157Z,2.80
2018-03-14T09:43:59.329Z,1.53
2018-03-14T09:46:27.522Z,3.90
2018-03-14T09:48:56.463Z,3.00
2018-03-14T09:51:24.687Z,2.80
2018-03-14T09:53:52.861Z,4.20
2018-03-14T09:56:21.798Z,0.97
2018-03-14T09:58:50.064Z,4.43
2018-03-14T10:01:18.235Z,1.30
2018-03-14T10:03:46.404Z,1.80
2018-03-14T10:06:14.571Z,2.37
2018-03-14T10:08:42.734Z,2.60
2018-03-14T10:11:11.661Z,3.53
2018-03-14T10:13:39.831Z,2.90
2018-03-14T10:16:08.002Z,0.93
2018-03-14T10:18:36.181Z,1.33
2018-03-14T10:21:04.353Z,1.20
2018-03-14T10:23:32.515Z,1.03
2018-03-14T10:26:00.685Z,1.80
2018-03-14T10:28:28.887Z,0.70
2018-03-14T10:30:57.074Z,2.40
2018-03-14T10:33:25.238Z,1.73
2018-03-14T10:35:53.419Z,3.10
2018-03-14T10:38:21.578Z,0.83
2018-03-14T10:40:49.834Z,1.47
2018-03-14T10:43:18.743Z,1.17
2018-03-14T10:45:46.913Z,0.77
2018-03-14T10:48:15.089Z,1.50
2018-03-14T10:50:43.266Z,0.60
2018-03-14T10:53:11.430Z,1.10
2018-03-14T10:55:39.611Z,1.13
2018-03-14T10:58:07.771Z,1.10
2018-03-14T11:00:41.447Z,0.73
2018-03-14T11:03:15.902Z,0.50
2018-03-14T11:05:44.066Z,0.80
2018-03-14T11:08:12.243Z,1.17
2018-03-14T11:10:40.559Z,1.33
2018-03-14T11:13:08.723Z,0.50
2018-03-14T11:15:36.949Z,0.50
2018-03-14T11:18:05.111Z,0.60
2018-03-14T11:20:34.329Z,0.73
2018-03-14T11:23:03.282Z,0.90
2018-03-14T11:25:32.267Z,0.50
2018-03-14T11:28:00.456Z,0.70
2018-03-14T11:30:28.647Z,0.50
2018-03-14T11:32:57.615Z,0.60
2018-03-14T11:35:25.778Z,0.90
2018-03-14T11:37:53.942Z,0.70
2018-03-14T11:40:22.119Z,0.60
2018-03-14T11:42:50.338Z,0.70
2018-03-14T11:45:18.531Z,0.70
2018-03-14T11:47:47.461Z,1.00
2018-03-14T11:50:15.683Z,0.83
2018-03-14T11:52:43.882Z,0.70
2018-03-14T11:55:12.816Z,1.17
2018-03-14T11:57:40.977Z,1.60
2018-03-14T12:00:09.138Z,3.73
2018-03-14T12:02:37.326Z,2.23
2018-03-14T12:05:05.486Z,1.23
2018-03-14T12:07:33.687Z,1.13
2018-03-14T12:10:01.867Z,1.33
2018-03-14T12:12:30.029Z,0.60
2018-03-14T12:14:58.199Z,1.40
2018-03-14T12:17:27.382Z,1.17
2018-03-14T12:19:55.543Z,1.30
2018-03-14T12:22:30.041Z,1.17
2018-03-14T12:24:58.209Z,2.93
2018-03-14T12:27:27.545Z,0.90
2018-03-14T12:29:55.748Z,2.00
2018-03-14T12:32:23.893Z,4.47
2018-03-14T12:34:52.092Z,0.80
2018-03-14T12:37:20.278Z,0.80
2018-03-14T12:39:48.443Z,1.27
2018-03-14T12:42:16.669Z,0.60
2018-03-14T12:44:44.803Z,1.33
2018-03-14T12:47:12.969Z,0.90
2018-03-14T12:49:41.155Z,0.60
2018-03-14T12:52:09.325Z,0.43
2018-03-14T12:54:37.490Z,1.23
2018-03-14T12:57:05.650Z,2.53
2018-03-14T12:59:33.817Z,0.53
2018-03-14T13:02:02.072Z,2.20
2018-03-14T13:04:30.244Z,0.77
2018-03-14T13:06:59.179Z,0.57
2018-03-14T13:09:27.343Z,0.80
2018-03-14T13:11:55.503Z,3.67
2018-03-14T13:14:23.675Z,1.73
2018-03-14T13:16:52.639Z,4.23
2018-03-14T13:19:20.822Z,0.63
2018-03-14T13:21:49.773Z,1.73
2018-03-14T13:24:18.704Z,0.80
2018-03-14T13:26:46.881Z,1.77
2018-03-14T13:29:15.059Z,1.60
2018-03-14T13:31:43.990Z,1.73
2018-03-14T13:34:12.159Z,4.63
2018-03-14T13:36:40.322Z,0.97
2018-03-14T13:39:08.497Z,1.53
2018-03-14T13:41:36.671Z,0.73
2018-03-14T13:44:04.830Z,2.30
2018-03-14T13:46:33.759Z,1.30
2018-03-14T13:49:01.936Z,0.63
2018-03-14T13:51:30.110Z,1.40
2018-03-14T13:53:58.283Z,2.30
2018-03-14T13:56:26.471Z,0.80
2018-03-14T13:58:54.680Z,0.93
2018-03-14T14:01:22.853Z,0.50
2018-03-14T14:03:51.048Z,0.73
2018-03-14T14:06:19.986Z,0.93
2018-03-14T14:08:48.162Z,1.50
2018-03-14T14:11:16.333Z,0.93
2018-03-14T14:13:44.507Z,0.60
2018-03-14T14:16:12.689Z,1.53
2018-03-14T14:18:40.847Z,1.10
2018-03-14T14:21:09.010Z,0.90
2018-03-14T14:23:37.180Z,2.00
2018-03-14T14:26:05.354Z,1.53
2018-03-14T14:28:33.514Z,1.20
2018-03-14T14:31:02.454Z,2.63
2018-03-14T14:33:30.644Z,1.37
2018-03-14T14:35:58.811Z,2.43
2018-03-14T14:38:29.033Z,2.03
2018-03-14T14:40:57.198Z,1.30
2018-03-14T14:43:25.704Z,0.80
2018-03-14T14:45:53.894Z,1.70
2018-03-14T14:48:22.841Z,1.57
2018-03-14T14:50:51.008Z,1.73
2018-03-14T14:53:19.229Z,1.23
2018-03-14T14:55:47.418Z,1.17
2018-03-14T14:58:16.373Z,1.20
2018-03-14T15:00:44.550Z,0.63
2018-03-14T15:03:12.707Z,1.70
2018-03-14T15:05:40.878Z,1.77
2018-03-14T15:08:09.054Z,1.00
2018-03-14T15:10:37.259Z,2.23
2018-03-14T15:13:05.435Z,2.03
2018-03-14T15:15:33.605Z,2.67
2018-03-14T15:18:01.780Z,1.50
2018-03-14T15:20:30.003Z,2.80
2018-03-14T15:22:58.205Z,0.63
2018-03-14T15:25:26.374Z,2.20
2018-03-14T15:27:54.581Z,3.60
2018-03-14T15:30:22.731Z,4.77
2018-03-14T15:32:50.903Z,0.77
2018-03-14T15:35:19.090Z,2.30
2018-03-14T15:37:47.255Z,1.27
2018-03-14T15:40:15.431Z,1.10
2018-03-14T15:42:43.599Z,2.33
2018-03-14T15:45:11.777Z,0.50
2018-03-14T15:47:39.982Z,3.20
2018-03-14T15:50:08.225Z,4.13
2018-03-14T15:52:36.419Z,2.80
2018-03-14T15:55:04.651Z,1.73
2018-03-14T15:57:32.852Z,3.83
2018-03-14T16:00:01.029Z,1.40
2018-03-14T16:02:29.334Z,2.63
2018-03-14T16:04:57.511Z,3.13
2018-03-14T16:07:25.684Z,2.73
2018-03-14T16:09:53.890Z,0.87
2018-03-14T16:12:22.858Z,1.83
2018-03-14T16:14:51.041Z,1.23
2018-03-14T16:17:20.022Z,4.13
2018-03-14T16:19:48.161Z,5.50
2018-03-14T16:22:16.329Z,2.33
2018-03-14T16:24:44.530Z,4.43
2018-03-14T16:27:12.705Z,2.30
2018-03-14T16:29:41.285Z,2.00
2018-03-14T16:32:09.537Z,1.70
2018-03-14T16:34:37.713Z,2.00
2018-03-14T16:37:05.896Z,1.00
2018-03-14T16:39:34.103Z,1.40
2018-03-14T16:42:02.280Z,2.50
2018-03-14T16:44:30.516Z,0.70
2018-03-14T16:46:58.793Z,1.83
2018-03-14T16:49:26.985Z,1.73
2018-03-14T16:51:55.154Z,1.80
2018-03-14T16:54:23.419Z,2.57
2018-03-14T16:56:51.618Z,3.97
2018-03-14T16:59:19.803Z,0.80
2018-03-14T17:01:47.960Z,2.90
2018-03-14T17:04:16.916Z,1.63
2018-03-14T17:06:45.114Z,3.87
2018-03-14T17:09:13.299Z,1.83
2018-03-14T17:11:41.563Z,2.33
2018-03-14T17:14:09.729Z,3.90
2018-03-14T17:16:37.910Z,1.10
2018-03-14T17:19:06.103Z,2.33
2018-03-14T17:21:34.302Z,1.13
2018-03-14T17:24:02.479Z,4.83
2018-03-14T17:26:30.714Z,2.70
2018-03-14T17:28:58.889Z,1.70
2018-03-14T17:31:27.063Z,1.27
2018-03-14T17:33:55.421Z,3.30
2018-03-14T17:36:23.628Z,2.50
2018-03-14T17:38:51.892Z,2.40
2018-03-14T17:41:20.050Z,3.60
2018-03-14T17:43:48.250Z,3.37
2018-03-14T17:46:16.433Z,3.93
2018-03-14T17:48:44.603Z,4.80
2018-03-14T17:51:12.865Z,2.80
2018-03-14T17:53:41.033Z,2.80
2018-03-14T17:56:09.849Z,2.03
2018-03-14T17:58:38.123Z,5.67
2018-03-14T18:01:06.366Z,2.00
2018-03-14T18:03:34.558Z,4.80
2018-03-14T18:06:02.833Z,2.93
2018-03-14T18:08:31.004Z,3.40
2018-03-14T18:10:59.166Z,2.70
2018-03-14T18:13:27.331Z,2.43
2018-03-14T18:15:55.507Z,4.03
2018-03-14T18:18:23.718Z,6.33
2018-03-14T18:20:51.889Z,7.33
2018-03-14T18:23:20.157Z,4.63
2018-03-14T18:25:48.355Z,4.60
2018-03-14T18:28:16.574Z,4.83
2018-03-14T18:30:45.527Z,2.90
2018-03-14T18:33:13.756Z,5.23
2018-03-14T18:35:41.935Z,4.67
2018-03-14T18:38:10.160Z,3.73
2018-03-14T18:40:39.121Z,4.63
2018-03-14T18:43:07.310Z,5.87
2018-03-14T18:45:35.474Z,4.23
2018-03-14T18:48:03.780Z,4.97
2018-03-14T18:50:32.716Z,3.53
2018-03-14T18:53:01.224Z,5.50
2018-03-14T18:55:30.201Z,4.93
2018-03-14T18:57:58.359Z,4.50
2018-03-14T19:00:27.305Z,10.17
2018-03-14T19:02:55.492Z,3.90
2018-03-14T19:05:23.696Z,3.70
2018-03-14T19:07:52.632Z,3.47
2018-03-14T19:10:20.824Z,3.03
2018-03-14T19:12:49.000Z,5.33
2018-03-14T19:15:17.191Z,3.67
2018-03-14T19:17:46.125Z,3.50
2018-03-14T19:20:14.334Z,3.90
2018-03-14T19:22:42.509Z,2.13
2018-03-14T19:25:11.597Z,2.57
2018-03-14T19:27:39.825Z,2.83
2018-03-14T19:30:07.959Z,2.47
2018-03-14T19:32:36.129Z,3.23
2018-03-14T19:35:04.295Z,2.53
2018-03-14T19:37:32.486Z,4.33
2018-03-14T19:40:00.670Z,4.33
2018-03-14T19:42:28.849Z,4.90
2018-03-14T19:44:57.032Z,7.47
2018-03-14T19:47:25.986Z,2.53
2018-03-14T19:49:54.174Z,4.40
2018-03-14T19:52:22.411Z,3.10
2018-03-14T19:54:50.585Z,4.20
2018-03-14T19:57:18.750Z,3.77
2018-03-14T19:59:46.926Z,3.17
2018-03-14T20:02:15.240Z,4.93
2018-03-14T20:04:43.414Z,5.00
2018-03-14T20:07:11.600Z,3.53
2018-03-14T20:09:39.774Z,3.60
2018-03-14T20:12:07.933Z,4.20
2018-03-14T20:14:36.095Z,2.80
2018-03-14T20:17:04.256Z,3.00
2018-03-14T20:19:33.419Z,2.30
2018-03-14T20:22:01.603Z,4.03
2018-03-14T20:24:30.550Z,2.17
2018-03-14T20:26:58.722Z,3.30
2018-03-14T20:29:26.904Z,2.90
2018-03-14T20:31:55.074Z,5.87
2018-03-14T20:34:23.282Z,3.70
2018-03-14T20:36:51.450Z,3.67
2018-03-14T20:39:19.661Z,5.20
2018-03-14T20:41:47.820Z,2.63
2018-03-14T20:44:16.753Z,3.10
2018-03-14T20:46:44.914Z,6.60
2018-03-14T20:49:13.087Z,3.70
2018-03-14T20:51:41.278Z,2.87
2018-03-14T20:54:09.472Z,4.50
2018-03-14T20:56:38.388Z,4.83
2018-03-14T20:59:06.555Z,6.60
2018-03-14T21:01:34.729Z,11.27
2018-03-14T21:04:02.910Z,5.83
2018-03-14T21:06:31.062Z,4.40
2018-03-14T21:08:59.238Z,9.20
2018-03-14T21:11:27.455Z,7.10
2018-03-14T21:13:56.391Z,5.10
2018-03-14T21:16:24.565Z,4.77
2018-03-14T21:18:52.739Z,6.57
2018-03-14T21:21:20.911Z,6.20
2018-03-14T21:23:49.062Z,7.00
2018-03-14T21:26:17.229Z,4.90
2018-03-14T21:28:45.395Z,5.50
2018-03-14T21:31:14.379Z,5.07
2018-03-14T21:33:42.518Z,5.80
2018-03-14T21:36:10.678Z,6.07
2018-03-14T21:38:38.850Z,6.70
2018-03-14T21:41:07.040Z,6.10
2018-03-14T21:43:35.199Z,5.30
2018-03-14T21:46:03.368Z,7.83
2018-03-14T21:48:31.526Z,5.67
2018-03-14T21:50:59.700Z,4.57
2018-03-14T21:53:27.876Z,5.20
2018-03-14T21:55:56.036Z,4.90
2018-03-14T21:58:24.224Z,10.30
2018-03-14T22:00:52.385Z,5.77
2018-03-14T22:03:20.557Z,8.30
2018-03-14T22:05:49.497Z,6.07
2018-03-14T22:08:17.678Z,5.80
2018-03-14T22:10:45.837Z,5.40
2018-03-14T22:13:14.012Z,5.57
2018-03-14T22:15:42.174Z,6.93
2018-03-14T22:18:10.336Z,5.90
2018-03-14T22:20:38.488Z,7.00
2018-03-14T22:23:07.416Z,6.90
2018-03-14T22:25:35.604Z,5.43
2018-03-14T22:28:03.776Z,5.13
2018-03-14T22:30:31.942Z,4.60
2018-03-14T22:33:00.110Z,4.93
2018-03-14T22:35:28.271Z,5.17
2018-03-14T22:37:56.448Z,4.80
2018-03-14T22:40:24.812Z,4.70
2018-03-14T22:42:53.775Z,7.47
2018-03-14T22:45:21.934Z,4.77
2018-03-14T22:47:50.100Z,5.27
2018-03-14T22:50:18.276Z,4.43
2018-03-14T22:52:46.474Z,3.90
2018-03-14T22:55:14.644Z,4.33
2018-03-14T22:57:42.831Z,7.57
2018-03-14T23:00:11.021Z,5.67
2018-03-14T23:02:39.956Z,5.03
2018-03-14T23:05:08.221Z,4.80
2018-03-14T23:07:36.418Z,4.60
2018-03-14T23:10:04.640Z,4.77
2018-03-14T23:12:33.675Z,4.63
2018-03-14T23:15:02.027Z,3.97
2018-03-14T23:17:30.193Z,12.10
2018-03-14T23:19:59.127Z,3.73
2018-03-14T23:22:27.289Z,3.60
2018-03-14T23:24:55.445Z,4.67
2018-03-14T23:27:23.631Z,4.83
2018-03-14T23:29:51.917Z,4.23
2018-03-14T23:32:20.071Z,5.23
2018-03-14T23:34:48.234Z,3.33
2018-03-14T23:37:17.176Z,4.90
2018-03-14T23:39:45.342Z,4.50
2018-03-14T23:42:13.509Z,4.33
2018-03-14T23:44:41.666Z,5.13
2018-03-14T23:47:09.824Z,4.80
2018-03-14T23:49:38.794Z,5.33
2018-03-14T23:52:06.967Z,4.33
2018-03-14T23:54:35.143Z,4.33
2018-03-14T23:57:03.318Z,7.50
2018-03-14T23:59:31.484Z,4.03
